ANA1696 RJSF-RJOO
Flight info
| Callsign | ANA1696 |
|---|---|
| Flight time | 1h 2m |
| Altitude | 30000 |
| Route | NASNO Y880 NIKKO Y88 NAKTU Y12 KOHWA Y546 AGPUK MIRAI ABENO IKOMA |
| Aircraft | B738/M-SDE2E3FGHIRWXY/LB1 |
Departure
| Time | 2026-05-04 05:28 |
|---|---|
| Airport | Fukushima Airport (RJSF) |
Arrival
| Time | 2026-05-04 06:31 |
|---|---|
| Airport | Osaka Itami International Airport (RJOO) |
| Time | Latitude | Longitude | Altitude | Speed | Heading |
|---|---|---|---|---|---|
| 2026-05-04 04:54 | 37.22638 | 140.43271 | 1219 ft | 0 kts | 92° |
| 2026-05-04 05:18 | 37.22638 | 140.43262 | 1218 ft | 4 kts | 93° |
| 2026-05-04 05:18 | 37.22641 | 140.43228 | 1218 ft | 4 kts | 98° |
| 2026-05-04 05:18 | 37.22646 | 140.43195 | 1217 ft | 4 kts | 107° |
| 2026-05-04 05:18 | 37.22656 | 140.43165 | 1216 ft | 4 kts | 133° |
| 2026-05-04 05:19 | 37.22672 | 140.43154 | 1216 ft | 0 kts | 182° |
| 2026-05-04 05:21 | 37.22665 | 140.43154 | 1216 ft | 2 kts | 181° |
| 2026-05-04 05:22 | 37.22635 | 140.43152 | 1215 ft | 6 kts | 182° |
| 2026-05-04 05:22 | 37.22579 | 140.43149 | 1215 ft | 9 kts | 184° |
| 2026-05-04 05:22 | 37.22531 | 140.43113 | 1215 ft | 8 kts | 241° |
| 2026-05-04 05:22 | 37.22525 | 140.43038 | 1213 ft | 9 kts | 258° |
| 2026-05-04 05:23 | 37.22478 | 140.42995 | 1211 ft | 9 kts | 185° |
| 2026-05-04 05:23 | 37.22416 | 140.42991 | 1211 ft | 9 kts | 182° |
| 2026-05-04 05:23 | 37.22347 | 140.42988 | 1212 ft | 11 kts | 182° |
| 2026-05-04 05:23 | 37.22271 | 140.42984 | 1213 ft | 12 kts | 182° |
| 2026-05-04 05:24 | 37.22186 | 140.42980 | 1214 ft | 13 kts | 182° |
| 2026-05-04 05:24 | 37.22088 | 140.42976 | 1213 ft | 15 kts | 182° |
| 2026-05-04 05:24 | 37.21976 | 140.42970 | 1213 ft | 17 kts | 182° |
| 2026-05-04 05:24 | 37.21862 | 140.42965 | 1215 ft | 16 kts | 181° |
| 2026-05-04 05:25 | 37.21766 | 140.42960 | 1214 ft | 11 kts | 182° |
| 2026-05-04 05:25 | 37.21692 | 140.42957 | 1212 ft | 10 kts | 181° |
| 2026-05-04 05:25 | 37.21632 | 140.42921 | 1211 ft | 10 kts | 240° |
| 2026-05-04 05:25 | 37.21630 | 140.42837 | 1212 ft | 10 kts | 272° |
| 2026-05-04 05:26 | 37.21638 | 140.42763 | 1214 ft | 8 kts | 298° |
| 2026-05-04 05:26 | 37.21684 | 140.42748 | 1215 ft | 0 kts | 1° |
| 2026-05-04 05:26 | 37.21724 | 140.42749 | 1215 ft | 25 kts | 2° |
| 2026-05-04 05:27 | 37.22151 | 140.42770 | 1214 ft | 97 kts | 2° |
| 2026-05-04 05:28 | 37.23151 | 140.36758 | 5015 ft | 231 kts | 224° |
| 2026-05-04 05:29 | 37.21900 | 140.35456 | 5651 ft | 240 kts | 224° |
| 2026-05-04 05:29 | 37.20604 | 140.34090 | 6425 ft | 246 kts | 224° |
| 2026-05-04 05:29 | 37.19296 | 140.32704 | 7354 ft | 246 kts | 224° |
| 2026-05-04 05:29 | 37.17994 | 140.31322 | 8292 ft | 246 kts | 224° |
| 2026-05-04 05:31 | 37.05224 | 140.24703 | 11694 ft | 334 kts | 205° |
| 2026-05-04 05:31 | 37.03045 | 140.23717 | 12534 ft | 331 kts | 205° |
| 2026-05-04 05:32 | 37.00876 | 140.22734 | 13193 ft | 333 kts | 205° |
| 2026-05-04 05:32 | 36.98685 | 140.21737 | 13834 ft | 335 kts | 205° |
| 2026-05-04 05:32 | 36.96486 | 140.20734 | 14392 ft | 338 kts | 206° |
| 2026-05-04 05:33 | 36.92050 | 140.18710 | 15433 ft | 344 kts | 206° |
| 2026-05-04 05:33 | 36.89792 | 140.17679 | 15995 ft | 346 kts | 206° |
| 2026-05-04 05:33 | 36.87584 | 140.16500 | 16494 ft | 343 kts | 213° |
| 2026-05-04 05:33 | 36.85535 | 140.14962 | 17015 ft | 343 kts | 216° |
| 2026-05-04 05:34 | 36.83514 | 140.13350 | 17492 ft | 346 kts | 217° |
| 2026-05-04 05:34 | 36.81483 | 140.11718 | 17910 ft | 349 kts | 217° |
| 2026-05-04 05:34 | 36.79426 | 140.10079 | 18334 ft | 352 kts | 216° |
| 2026-05-04 05:34 | 36.77347 | 140.08437 | 18756 ft | 354 kts | 216° |
| 2026-05-04 05:35 | 36.75257 | 140.06801 | 19210 ft | 355 kts | 216° |
| 2026-05-04 05:35 | 36.73147 | 140.05160 | 19598 ft | 358 kts | 216° |
| 2026-05-04 05:35 | 36.71032 | 140.03519 | 20001 ft | 359 kts | 216° |
| 2026-05-04 05:35 | 36.68895 | 140.01865 | 20349 ft | 362 kts | 216° |
| 2026-05-04 05:36 | 36.66780 | 140.00229 | 20706 ft | 363 kts | 216° |
| 2026-05-04 05:36 | 36.64619 | 139.98560 | 21030 ft | 366 kts | 216° |
| 2026-05-04 05:36 | 36.62462 | 139.96895 | 21512 ft | 363 kts | 216° |
| 2026-05-04 05:36 | 36.60303 | 139.95231 | 21811 ft | 366 kts | 216° |
| 2026-05-04 05:37 | 36.58133 | 139.93557 | 22066 ft | 369 kts | 216° |
| 2026-05-04 05:37 | 36.55941 | 139.91868 | 22336 ft | 371 kts | 216° |
| 2026-05-04 05:37 | 36.53731 | 139.90165 | 22648 ft | 372 kts | 216° |
| 2026-05-04 05:38 | 36.49512 | 139.86498 | 23190 ft | 372 kts | 224° |
| 2026-05-04 05:38 | 36.47645 | 139.84268 | 23431 ft | 373 kts | 229° |
| 2026-05-04 05:38 | 36.45998 | 139.81766 | 23702 ft | 373 kts | 234° |
| 2026-05-04 05:38 | 36.44479 | 139.79140 | 23930 ft | 375 kts | 234° |
| 2026-05-04 05:39 | 36.42964 | 139.76509 | 24187 ft | 376 kts | 234° |
| 2026-05-04 05:39 | 36.39888 | 139.71229 | 24608 ft | 379 kts | 234° |
| 2026-05-04 05:39 | 36.38336 | 139.68580 | 24864 ft | 379 kts | 234° |
| 2026-05-04 05:40 | 36.35235 | 139.63252 | 25241 ft | 382 kts | 234° |
| 2026-05-04 05:40 | 36.33693 | 139.60603 | 25425 ft | 383 kts | 234° |
| 2026-05-04 05:40 | 36.32636 | 139.58791 | 25576 ft | 383 kts | 234° |
| 2026-05-04 05:41 | 36.30560 | 139.55236 | 25861 ft | 384 kts | 234° |
| 2026-05-04 05:41 | 36.28995 | 139.52558 | 26168 ft | 382 kts | 234° |
| 2026-05-04 05:41 | 36.27437 | 139.49895 | 26487 ft | 380 kts | 234° |
| 2026-05-04 05:41 | 36.26409 | 139.48137 | 26707 ft | 379 kts | 234° |
| 2026-05-04 05:42 | 36.24863 | 139.45501 | 27001 ft | 378 kts | 234° |
| 2026-05-04 05:42 | 36.23317 | 139.42865 | 27269 ft | 378 kts | 234° |
| 2026-05-04 05:42 | 36.21774 | 139.40236 | 27598 ft | 376 kts | 234° |
| 2026-05-04 05:42 | 36.20240 | 139.37625 | 27961 ft | 374 kts | 235° |
| 2026-05-04 05:43 | 36.18710 | 139.35020 | 28304 ft | 372 kts | 235° |
| 2026-05-04 05:43 | 36.17198 | 139.32422 | 28614 ft | 371 kts | 236° |
| 2026-05-04 05:43 | 36.15861 | 139.29698 | 28885 ft | 371 kts | 242° |
| 2026-05-04 05:45 | 36.08341 | 139.09486 | 29529 ft | 367 kts | 243° |
| 2026-05-04 05:47 | 35.99824 | 138.86767 | 29567 ft | 362 kts | 242° |
| 2026-05-04 05:47 | 35.97689 | 138.81108 | 29498 ft | 364 kts | 243° |
| 2026-05-04 05:48 | 35.95541 | 138.75411 | 29570 ft | 367 kts | 243° |
| 2026-05-04 05:48 | 35.93366 | 138.69661 | 29519 ft | 371 kts | 243° |
| 2026-05-04 05:49 | 35.91169 | 138.63855 | 29564 ft | 376 kts | 243° |
| 2026-05-04 05:49 | 35.88980 | 138.58079 | 29601 ft | 371 kts | 243° |
| 2026-05-04 05:51 | 35.80255 | 138.35234 | 29615 ft | 369 kts | 242° |
| 2026-05-04 05:52 | 35.78065 | 138.29524 | 29615 ft | 367 kts | 243° |
| 2026-05-04 05:52 | 35.75901 | 138.23863 | 29597 ft | 364 kts | 243° |
| 2026-05-04 05:54 | 35.67181 | 138.01176 | 29642 ft | 364 kts | 242° |
| 2026-05-04 05:55 | 35.65085 | 137.95492 | 29644 ft | 366 kts | 243° |
| 2026-05-04 05:55 | 35.63041 | 137.89801 | 29630 ft | 365 kts | 243° |
| 2026-05-04 05:56 | 35.60991 | 137.84146 | 29669 ft | 362 kts | 243° |
| 2026-05-04 05:56 | 35.58922 | 137.78479 | 29678 ft | 364 kts | 243° |
| 2026-05-04 05:57 | 35.56792 | 137.72837 | 29703 ft | 363 kts | 242° |
| 2026-05-04 05:57 | 35.54661 | 137.67240 | 29698 ft | 364 kts | 243° |
| 2026-05-04 05:58 | 35.52524 | 137.61614 | 29682 ft | 362 kts | 242° |
| 2026-05-04 05:58 | 35.50384 | 137.55977 | 29682 ft | 364 kts | 243° |
| 2026-05-04 05:59 | 35.48136 | 137.50469 | 29688 ft | 362 kts | 234° |
| 2026-05-04 05:59 | 35.44807 | 137.45828 | 29696 ft | 363 kts | 226° |
| 2026-05-04 06:00 | 35.40672 | 137.42195 | 29705 ft | 370 kts | 214° |
| 2026-05-04 06:00 | 35.36134 | 137.39190 | 29703 ft | 370 kts | 214° |
| 2026-05-04 06:01 | 35.31613 | 137.36201 | 29697 ft | 370 kts | 214° |
| 2026-05-04 06:05 | 34.99331 | 137.14770 | 29712 ft | 357 kts | 214° |
| 2026-05-04 06:05 | 34.95064 | 137.11961 | 29730 ft | 344 kts | 214° |
| 2026-05-04 06:06 | 34.90865 | 137.09185 | 29448 ft | 349 kts | 214° |
| 2026-05-04 06:06 | 34.88748 | 137.07790 | 29037 ft | 344 kts | 214° |
| 2026-05-04 06:06 | 34.86667 | 137.06423 | 28604 ft | 338 kts | 214° |
| 2026-05-04 06:06 | 34.84608 | 137.05070 | 28110 ft | 333 kts | 214° |
| 2026-05-04 06:07 | 34.82573 | 137.03731 | 27619 ft | 329 kts | 214° |
| 2026-05-04 06:07 | 34.80570 | 137.02413 | 27131 ft | 326 kts | 214° |
| 2026-05-04 06:07 | 34.78588 | 137.01110 | 26642 ft | 322 kts | 214° |
| 2026-05-04 06:07 | 34.76622 | 136.99819 | 26162 ft | 319 kts | 215° |
| 2026-05-04 06:08 | 34.74676 | 136.98543 | 25679 ft | 316 kts | 215° |
| 2026-05-04 06:08 | 34.72868 | 136.97089 | 25196 ft | 307 kts | 225° |
| 2026-05-04 06:08 | 34.71403 | 136.95246 | 24775 ft | 301 kts | 231° |
| 2026-05-04 06:08 | 34.70108 | 136.93246 | 24285 ft | 298 kts | 236° |
| 2026-05-04 06:09 | 34.69103 | 136.91056 | 23812 ft | 297 kts | 245° |
| 2026-05-04 06:09 | 34.68400 | 136.88794 | 23373 ft | 295 kts | 246° |
| 2026-05-04 06:11 | 34.63783 | 136.72799 | 20250 ft | 278 kts | 247° |
| 2026-05-04 06:11 | 34.63140 | 136.70596 | 19825 ft | 275 kts | 247° |
| 2026-05-04 06:13 | 34.58787 | 136.55766 | 16936 ft | 259 kts | 248° |
| 2026-05-04 06:14 | 34.55068 | 136.43173 | 14504 ft | 272 kts | 248° |
| 2026-05-04 06:14 | 34.54433 | 136.41025 | 14081 ft | 269 kts | 248° |
| 2026-05-04 06:15 | 34.53803 | 136.38895 | 13676 ft | 267 kts | 248° |
| 2026-05-04 06:15 | 34.53182 | 136.36798 | 13445 ft | 260 kts | 248° |
| 2026-05-04 06:15 | 34.52575 | 136.34747 | 13138 ft | 257 kts | 247° |
| 2026-05-04 06:15 | 34.51965 | 136.32686 | 12727 ft | 264 kts | 249° |
| 2026-05-04 06:16 | 34.51505 | 136.30517 | 12481 ft | 266 kts | 256° |
| 2026-05-04 06:16 | 34.51205 | 136.28307 | 12147 ft | 271 kts | 257° |
| 2026-05-04 06:16 | 34.50913 | 136.26033 | 11720 ft | 275 kts | 257° |
| 2026-05-04 06:16 | 34.50623 | 136.23749 | 11327 ft | 272 kts | 258° |
| 2026-05-04 06:17 | 34.50336 | 136.21501 | 10929 ft | 269 kts | 258° |
| 2026-05-04 06:17 | 34.50046 | 136.19271 | 10631 ft | 265 kts | 258° |
| 2026-05-04 06:17 | 34.49759 | 136.17088 | 10482 ft | 259 kts | 258° |
| 2026-05-04 06:17 | 34.49478 | 136.14949 | 10360 ft | 255 kts | 259° |
| 2026-05-04 06:18 | 34.49194 | 136.12824 | 10248 ft | 255 kts | 259° |
| 2026-05-04 06:18 | 34.48916 | 136.10738 | 10120 ft | 250 kts | 259° |
| 2026-05-04 06:18 | 34.48679 | 136.08687 | 9964 ft | 243 kts | 266° |
| 2026-05-04 06:20 | 34.52332 | 135.94751 | 7834 ft | 246 kts | 287° |
| 2026-05-04 06:20 | 34.52883 | 135.92796 | 7568 ft | 244 kts | 287° |
| 2026-05-04 06:21 | 34.55026 | 135.85118 | 6542 ft | 238 kts | 287° |
| 2026-05-04 06:21 | 34.55554 | 135.83208 | 6276 ft | 238 kts | 287° |
| 2026-05-04 06:22 | 34.56080 | 135.81308 | 6006 ft | 237 kts | 287° |
| 2026-05-04 06:22 | 34.56593 | 135.79452 | 5919 ft | 228 kts | 287° |
| 2026-05-04 06:25 | 34.63115 | 135.62401 | 3890 ft | 147 kts | 310° |
| 2026-05-04 06:25 | 34.63808 | 135.61546 | 3702 ft | 138 kts | 310° |
| 2026-05-04 06:26 | 34.64462 | 135.60744 | 3535 ft | 134 kts | 310° |
| 2026-05-04 06:26 | 34.65123 | 135.59935 | 3371 ft | 137 kts | 310° |
| 2026-05-04 06:26 | 34.65795 | 135.59112 | 3180 ft | 137 kts | 310° |
| 2026-05-04 06:26 | 34.66454 | 135.58308 | 2996 ft | 135 kts | 310° |
| 2026-05-04 06:27 | 34.69155 | 135.55013 | 2272 ft | 141 kts | 310° |
| 2026-05-04 06:28 | 34.69851 | 135.54166 | 2082 ft | 141 kts | 310° |
| 2026-05-04 06:28 | 34.70548 | 135.53317 | 1893 ft | 142 kts | 310° |
| 2026-05-04 06:28 | 34.71246 | 135.52466 | 1699 ft | 143 kts | 311° |
| 2026-05-04 06:28 | 34.71957 | 135.51599 | 1513 ft | 146 kts | 311° |
| 2026-05-04 06:29 | 34.72674 | 135.50724 | 1319 ft | 146 kts | 311° |
| 2026-05-04 06:29 | 34.73388 | 135.49855 | 1118 ft | 148 kts | 311° |
| 2026-05-04 06:29 | 34.74111 | 135.48974 | 927 ft | 147 kts | 311° |
| 2026-05-04 06:29 | 34.74833 | 135.48096 | 733 ft | 146 kts | 311° |
| 2026-05-04 06:30 | 34.75558 | 135.47212 | 539 ft | 147 kts | 311° |
| 2026-05-04 06:30 | 34.76291 | 135.46320 | 362 ft | 151 kts | 310° |
| 2026-05-04 06:30 | 34.77043 | 135.45404 | 127 ft | 152 kts | 312° |
| 2026-05-04 06:30 | 34.77753 | 135.44529 | 46 ft | 126 kts | 316° |
| 2026-05-04 06:31 | 34.78221 | 135.43967 | 49 ft | 65 kts | 315° |
| 2026-05-04 06:31 | 34.78441 | 135.43746 | 45 ft | 29 kts | 340° |
| 2026-05-04 06:31 | 34.78566 | 135.43701 | 46 ft | 12 kts | 346° |
| 2026-05-04 06:31 | 34.78647 | 135.43688 | 47 ft | 12 kts | 4° |
| 2026-05-04 06:32 | 34.78687 | 135.43697 | 47 ft | 0 kts | 14° |
| 2026-05-04 06:33 | 34.78733 | 135.44128 | 47 ft | 10 kts | 107° |
| 2026-05-04 06:34 | 34.78705 | 135.44176 | 47 ft | 6 kts | 108° |
| 2026-05-04 06:34 | 34.78719 | 135.44221 | 47 ft | 6 kts | 60° |
| 2026-05-04 06:34 | 34.78737 | 135.44257 | 47 ft | 5 kts | 59° |
| 2026-05-04 06:34 | 34.78747 | 135.44280 | 47 ft | 2 kts | 59° |
| 2026-05-04 06:35 | 34.78749 | 135.44284 | 47 ft | 0 kts | 59° |